createdAt,value
2019-04-10T00:07:48.024Z,3.28
2019-04-10T00:18:50.573Z,3.28
2019-04-10T00:29:53.061Z,3.27
2019-04-10T00:40:57.535Z,3.27
2019-04-10T00:52:00.132Z,3.27
2019-04-10T01:02:59.499Z,3.26
2019-04-10T01:14:02.345Z,3.26
2019-04-10T01:25:02.220Z,3.26
2019-04-10T01:36:06.956Z,3.26
2019-04-10T01:47:07.371Z,3.25
2019-04-10T01:58:06.686Z,3.25
2019-04-10T02:09:11.357Z,3.25
2019-04-10T02:20:12.555Z,3.25
2019-04-10T02:31:15.116Z,3.25
2019-04-10T02:42:14.538Z,3.25
2019-04-10T02:53:13.067Z,3.24
2019-04-10T03:04:13.362Z,3.24
2019-04-10T03:15:12.578Z,3.23
2019-04-10T03:26:13.166Z,3.23
2019-04-10T03:37:16.003Z,3.23
2019-04-10T03:48:18.033Z,3.23
2019-04-10T03:59:22.282Z,3.23
2019-04-10T04:10:24.679Z,3.23
2019-04-10T04:21:24.268Z,3.22
2019-04-10T04:32:23.816Z,3.22
2019-04-10T04:43:25.326Z,3.22
2019-04-10T04:54:26.536Z,3.22
2019-04-10T05:05:31.521Z,3.23
2019-04-10T05:16:28.932Z,3.23
2019-04-10T05:27:30.918Z,3.24
2019-04-10T05:38:35.480Z,3.25
2019-04-10T05:49:39.287Z,3.25
2019-04-10T06:00:37.239Z,3.26
2019-04-10T06:11:42.390Z,3.25
2019-04-10T06:22:43.817Z,3.25
2019-04-10T06:33:44.402Z,3.25
2019-04-10T06:44:42.500Z,3.25
2019-04-10T06:55:42.667Z,3.25
2019-04-10T07:06:57.345Z,3.26
2019-04-10T07:17:53.796Z,3.28
2019-04-10T07:28:58.486Z,3.29
2019-04-10T07:40:01.826Z,3.29
2019-04-10T07:51:04.821Z,3.29
2019-04-10T08:02:08.818Z,3.29
2019-04-10T08:13:10.378Z,3.33
2019-04-10T08:24:09.471Z,3.36
2019-04-10T08:35:13.200Z,3.39
2019-04-10T08:46:08.724Z,3.37
2019-04-10T08:57:07.417Z,3.36
2019-04-10T09:08:10.751Z,3.36
2019-04-10T09:19:09.733Z,3.37
2019-04-10T09:30:11.547Z,3.36
2019-04-10T09:41:09.977Z,3.35
2019-04-10T09:52:08.276Z,3.37
2019-04-10T10:03:12.231Z,3.36
2019-04-10T10:14:12.968Z,3.36
2019-04-10T10:25:11.248Z,3.38
2019-04-10T10:36:09.266Z,3.38
2019-04-10T10:47:04.414Z,3.41
2019-04-10T10:58:03.747Z,3.41
2019-04-10T11:09:04.135Z,3.39
2019-04-10T11:19:56.216Z,3.39
2019-04-10T11:30:56.831Z,3.41
2019-04-10T11:41:58.277Z,3.42
2019-04-10T11:52:56.729Z,3.41
2019-04-10T12:04:00.376Z,3.41
2019-04-10T12:15:02.081Z,3.42
2019-04-10T12:26:01.184Z,3.41
2019-04-10T12:37:00.594Z,3.39
2019-04-10T12:47:58.982Z,3.39
2019-04-10T12:59:00.028Z,3.39
2019-04-10T13:10:00.254Z,3.39
2019-04-10T13:20:58.206Z,3.39
2019-04-10T13:31:56.302Z,3.39
2019-04-10T13:42:57.908Z,3.39
2019-04-10T13:53:56.595Z,3.39
2019-04-10T14:04:59.768Z,3.39
2019-04-10T14:16:00.179Z,3.39
2019-04-10T14:27:03.544Z,3.39
2019-04-10T14:38:03.705Z,3.39
2019-04-10T14:49:04.877Z,3.39
2019-04-10T15:00:06.759Z,3.39
2019-04-10T15:11:07.275Z,3.39
2019-04-10T15:22:07.460Z,3.40
2019-04-10T15:33:06.979Z,3.39
2019-04-10T15:44:04.084Z,3.42
2019-04-10T15:54:59.363Z,3.42
2019-04-10T16:05:59.231Z,3.41
2019-04-10T16:16:53.142Z,3.40
2019-04-10T16:27:50.668Z,3.40
2019-04-10T16:38:51.425Z,3.39
2019-04-10T16:49:51.152Z,3.39
2019-04-10T17:00:49.920Z,3.39
2019-04-10T17:11:51.609Z,3.38
2019-04-10T17:22:49.622Z,3.37
2019-04-10T17:33:52.457Z,3.37
2019-04-10T17:44:50.721Z,3.36
2019-04-10T17:55:51.633Z,3.36
2019-04-10T18:06:52.904Z,3.35
2019-04-10T18:17:53.665Z,3.34
2019-04-10T18:28:51.988Z,3.34
2019-04-10T18:39:52.105Z,3.34
2019-04-10T18:50:49.635Z,3.34
2019-04-10T19:01:49.619Z,3.33
2019-04-10T19:12:45.639Z,3.33
2019-04-10T19:23:41.743Z,3.33
2019-04-10T19:34:45.563Z,3.32
2019-04-10T19:45:48.015Z,3.32
2019-04-10T19:56:50.953Z,3.32
2019-04-10T20:07:53.775Z,3.31
2019-04-10T20:18:51.438Z,3.31
2019-04-10T20:29:55.254Z,3.31
2019-04-10T20:41:00.412Z,3.31
2019-04-10T20:51:58.890Z,3.30
2019-04-10T21:03:00.647Z,3.30
2019-04-10T21:13:58.801Z,3.30
2019-04-10T21:24:56.246Z,3.30
2019-04-10T21:35:52.502Z,3.29
2019-04-10T21:46:53.004Z,3.29
2019-04-10T21:57:55.822Z,3.29
2019-04-10T22:09:00.248Z,3.29
2019-04-10T22:19:59.762Z,3.29
2019-04-10T22:31:00.242Z,3.29
2019-04-10T22:41:59.204Z,3.28
2019-04-10T22:52:57.512Z,3.28
2019-04-10T23:04:01.776Z,3.28
2019-04-10T23:15:03.222Z,3.28
2019-04-10T23:26:03.380Z,3.28
2019-04-10T23:37:04.728Z,3.27
2019-04-10T23:48:06.679Z,3.27
2019-04-10T23:59:08.824Z,3.27
